createdAt,value
2022-07-28T00:00:45.641Z,3.00
2022-07-28T00:05:49.892Z,3.30
2022-07-28T00:10:53.823Z,2.60
2022-07-28T00:15:57.398Z,3.20
2022-07-28T00:21:02.170Z,2.80
2022-07-28T00:26:06.009Z,3.00
2022-07-28T00:31:12.527Z,3.00
2022-07-28T00:36:18.033Z,2.90
2022-07-28T00:41:22.750Z,2.90
2022-07-28T00:46:26.446Z,2.50
2022-07-28T00:51:31.823Z,2.50
2022-07-28T00:56:35.700Z,2.50
2022-07-28T01:01:41.078Z,2.40
2022-07-28T01:06:55.112Z,2.20
2022-07-28T01:12:09.018Z,2.70
2022-07-28T01:17:26.916Z,1.80
2022-07-28T01:22:35.100Z,2.40
2022-07-28T01:27:54.792Z,2.30
2022-07-28T01:33:01.591Z,2.80
2022-07-28T01:38:08.111Z,2.80
2022-07-28T01:48:20.069Z,2.70
2022-07-28T01:53:25.693Z,2.60
2022-07-28T01:58:30.658Z,2.60
2022-07-28T02:03:35.418Z,3.10
2022-07-28T02:08:41.064Z,2.80
2022-07-28T02:13:47.011Z,2.70
2022-07-28T02:18:52.371Z,2.90
2022-07-28T02:23:58.393Z,3.00
2022-07-28T02:29:05.451Z,3.60
2022-07-28T02:34:11.230Z,3.00
2022-07-28T02:44:28.274Z,3.80
2022-07-28T02:49:33.624Z,3.50
2022-07-28T02:54:39.846Z,2.80
2022-07-28T02:59:44.232Z,3.20
2022-07-28T03:04:58.141Z,2.60
2022-07-28T03:10:02.941Z,3.20
2022-07-28T03:15:09.706Z,3.30
2022-07-28T03:20:14.902Z,3.30
2022-07-28T03:25:23.553Z,3.10
2022-07-28T03:30:32.174Z,2.80
2022-07-28T03:35:39.734Z,3.00
2022-07-28T03:40:46.451Z,3.10
2022-07-28T03:45:51.554Z,3.50
2022-07-28T03:50:55.714Z,3.10
2022-07-28T03:55:59.330Z,3.30
2022-07-28T04:01:02.988Z,3.60
2022-07-28T04:06:06.710Z,3.30
2022-07-28T04:11:11.153Z,2.90
2022-07-28T04:16:14.829Z,3.40
2022-07-28T04:21:19.152Z,3.40
2022-07-28T04:26:22.880Z,3.10
2022-07-28T04:31:26.672Z,3.50
2022-07-28T04:36:30.555Z,3.70
2022-07-28T04:41:35.057Z,3.20
2022-07-28T04:46:39.135Z,3.10
2022-07-28T04:51:48.057Z,3.70
2022-07-28T04:56:52.521Z,3.20
2022-07-28T05:01:56.947Z,3.70
2022-07-28T05:07:00.863Z,3.30
2022-07-28T05:12:12.039Z,3.70
2022-07-28T05:17:16.135Z,3.30
2022-07-28T05:22:22.006Z,3.10
2022-07-28T05:27:26.073Z,3.70
2022-07-28T05:32:30.055Z,4.00
2022-07-28T05:37:34.822Z,3.80
2022-07-28T05:42:39.748Z,4.00
2022-07-28T05:47:45.848Z,3.30
2022-07-28T05:52:50.742Z,4.10
2022-07-28T05:57:54.514Z,4.60
2022-07-28T06:03:01.497Z,3.60
2022-07-28T06:08:05.602Z,4.00
2022-07-28T06:13:14.354Z,3.50
2022-07-28T06:18:18.312Z,3.70
2022-07-28T06:23:23.352Z,3.30
2022-07-28T06:28:27.075Z,3.50
2022-07-28T06:33:30.634Z,3.00
2022-07-28T06:38:34.488Z,2.80
2022-07-28T06:43:39.258Z,3.30
2022-07-28T06:48:46.085Z,3.20
2022-07-28T06:53:49.875Z,3.30
2022-07-28T06:58:53.663Z,3.40
2022-07-28T07:03:57.203Z,3.60
2022-07-28T07:09:01.456Z,3.70
2022-07-28T07:14:05.114Z,3.40
2022-07-28T07:19:15.462Z,3.70
2022-07-28T07:24:20.032Z,3.40
2022-07-28T07:29:26.356Z,2.80
2022-07-28T07:34:34.222Z,3.00
2022-07-28T07:39:38.214Z,2.70
2022-07-28T07:44:42.073Z,2.70
2022-07-28T07:49:54.360Z,3.30
2022-07-28T07:54:57.756Z,3.30
2022-07-28T08:00:01.630Z,3.00
2022-07-28T08:05:06.747Z,3.40
2022-07-28T08:10:12.583Z,3.80
2022-07-28T08:15:25.204Z,3.80
2022-07-28T08:20:29.135Z,4.90
2022-07-28T08:25:35.892Z,3.50
2022-07-28T08:30:40.564Z,2.90
2022-07-28T08:35:44.328Z,3.30
2022-07-28T08:40:51.870Z,3.00
2022-07-28T08:45:58.705Z,3.40
2022-07-28T08:51:05.094Z,2.90
2022-07-28T08:56:12.356Z,3.40
2022-07-28T09:01:16.549Z,3.50
2022-07-28T09:06:22.671Z,3.50
2022-07-28T09:11:29.055Z,3.30
2022-07-28T09:16:32.948Z,3.90
2022-07-28T09:21:37.176Z,3.10
2022-07-28T09:27:01.026Z,3.50
2022-07-28T09:32:06.529Z,3.50
2022-07-28T09:37:23.311Z,3.70
2022-07-28T09:42:47.037Z,2.80
2022-07-28T09:48:08.043Z,3.70
2022-07-28T09:53:32.376Z,3.40
2022-07-28T09:58:36.909Z,3.20
2022-07-28T10:03:48.624Z,3.00
2022-07-28T10:08:53.292Z,2.90
2022-07-28T10:14:00.292Z,3.60
2022-07-28T10:19:05.631Z,3.60
2022-07-28T10:24:14.285Z,3.80
2022-07-28T10:29:20.839Z,3.70
2022-07-28T10:34:30.986Z,3.50
2022-07-28T10:39:41.568Z,4.20
2022-07-28T10:44:46.503Z,4.40
2022-07-28T10:49:50.371Z,4.10
2022-07-28T10:55:00.384Z,4.00
2022-07-28T11:00:24.507Z,4.00
2022-07-28T11:05:35.920Z,4.30
2022-07-28T11:10:51.610Z,4.50
2022-07-28T11:15:56.319Z,4.60
2022-07-28T11:21:09.870Z,4.60
2022-07-28T11:26:38.096Z,4.70
2022-07-28T11:32:13.248Z,4.60
2022-07-28T11:37:17.065Z,4.80
2022-07-28T11:42:28.905Z,4.50
2022-07-28T11:47:32.483Z,4.30
2022-07-28T11:52:37.301Z,4.80
2022-07-28T11:57:43.820Z,4.50
2022-07-28T12:02:47.611Z,5.00
2022-07-28T12:07:52.423Z,5.20
2022-07-28T12:12:57.686Z,4.90
2022-07-28T12:18:01.882Z,4.70
2022-07-28T12:23:09.847Z,4.60
2022-07-28T12:28:19.128Z,4.90
2022-07-28T12:33:29.349Z,5.10
2022-07-28T12:38:34.232Z,4.50
2022-07-28T12:43:37.795Z,4.70
2022-07-28T12:48:41.846Z,4.70
2022-07-28T12:53:52.332Z,4.60
2022-07-28T12:59:07.708Z,5.30
2022-07-28T13:04:12.105Z,4.70
2022-07-28T13:09:23.522Z,4.60
2022-07-28T13:14:44.305Z,5.50
2022-07-28T13:19:48.483Z,4.90
2022-07-28T13:24:52.417Z,5.10
2022-07-28T13:29:55.497Z,5.10
2022-07-28T13:34:59.112Z,5.60
2022-07-28T13:40:02.742Z,5.00
2022-07-28T13:45:08.200Z,5.20
2022-07-28T13:50:14.106Z,5.00
2022-07-28T13:55:22.652Z,5.20
2022-07-28T14:00:27.114Z,5.50
2022-07-28T14:05:31.948Z,5.10
2022-07-28T14:10:36.240Z,5.00
2022-07-28T14:15:40.770Z,5.30
2022-07-28T14:20:44.458Z,5.10
2022-07-28T14:25:49.556Z,4.90
2022-07-28T14:30:54.130Z,5.00
2022-07-28T14:35:58.297Z,5.10
2022-07-28T14:41:02.104Z,4.70
2022-07-28T14:46:15.105Z,4.90
2022-07-28T14:51:20.678Z,4.90
2022-07-28T14:56:24.942Z,4.00
2022-07-28T15:01:28.765Z,5.20
2022-07-28T15:06:41.103Z,5.00
2022-07-28T15:11:46.789Z,5.60
2022-07-28T15:16:51.209Z,5.00
2022-07-28T15:21:54.908Z,5.40
2022-07-28T15:26:59.635Z,5.30
2022-07-28T15:32:04.303Z,4.80
2022-07-28T15:37:08.283Z,4.60
2022-07-28T15:42:13.478Z,5.00
2022-07-28T15:47:17.564Z,5.20
2022-07-28T15:52:21.275Z,5.30
2022-07-28T15:57:25.334Z,5.00
2022-07-28T16:02:41.548Z,5.40
2022-07-28T16:07:45.464Z,5.10
2022-07-28T16:12:49.594Z,5.20
2022-07-28T16:17:53.578Z,5.00
2022-07-28T16:24:02.741Z,5.00
2022-07-28T16:29:06.452Z,4.80
2022-07-28T16:34:10.990Z,5.30
2022-07-28T16:39:14.811Z,4.80
2022-07-28T16:44:19.096Z,5.20
2022-07-28T16:49:23.572Z,4.80
2022-07-28T16:54:27.215Z,5.20
2022-07-28T16:59:36.995Z,4.90
2022-07-28T17:04:49.408Z,4.90
2022-07-28T17:09:53.103Z,4.70
2022-07-28T17:14:56.494Z,5.20
2022-07-28T17:20:00.758Z,4.40
2022-07-28T17:25:17.207Z,4.70
2022-07-28T17:30:32.348Z,4.50
2022-07-28T17:35:36.475Z,4.30
2022-07-28T17:40:42.444Z,4.40
2022-07-28T17:45:46.371Z,4.70
2022-07-28T17:50:51.114Z,5.50
2022-07-28T17:56:01.044Z,4.60
2022-07-28T18:01:12.048Z,4.80
2022-07-28T18:06:19.139Z,5.20
2022-07-28T18:11:24.225Z,5.30
2022-07-28T18:16:27.841Z,5.10
2022-07-28T18:21:31.754Z,5.40
2022-07-28T18:26:41.922Z,5.00
2022-07-28T18:31:46.958Z,5.20
2022-07-28T18:36:50.827Z,4.80
2022-07-28T18:41:56.472Z,5.30
2022-07-28T18:47:02.551Z,5.20
2022-07-28T18:52:07.382Z,5.60
2022-07-28T18:57:11.372Z,5.70
2022-07-28T19:02:15.848Z,5.50
2022-07-28T19:07:24.481Z,6.10
2022-07-28T19:12:30.756Z,6.00
2022-07-28T19:17:34.606Z,6.50
2022-07-28T19:22:38.706Z,6.70
2022-07-28T19:27:44.585Z,6.80
2022-07-28T19:37:51.351Z,6.40
2022-07-28T19:42:56.370Z,6.60
2022-07-28T19:48:03.237Z,6.40
2022-07-28T19:53:06.839Z,7.00
2022-07-28T19:58:18.470Z,6.40
2022-07-28T20:04:02.430Z,6.80
2022-07-28T20:08:45.671Z,6.60
2022-07-28T20:13:49.619Z,6.90
2022-07-28T20:18:53.879Z,6.50
2022-07-28T20:23:58.095Z,7.80
2022-07-28T20:29:01.715Z,7.50
2022-07-28T20:34:06.380Z,7.20
2022-07-28T20:39:34.484Z,7.50
2022-07-28T20:44:34.824Z,8.10
2022-07-28T20:49:39.146Z,9.10
2022-07-28T20:54:42.780Z,8.80
2022-07-28T20:59:48.312Z,8.50
2022-07-28T21:04:52.513Z,8.70
2022-07-28T21:09:56.308Z,8.70
2022-07-28T21:15:00.386Z,8.50
2022-07-28T21:20:05.206Z,8.80
2022-07-28T21:25:09.952Z,8.70
2022-07-28T21:30:14.792Z,8.40
2022-07-28T21:35:18.662Z,8.30
2022-07-28T21:40:22.914Z,7.40
2022-07-28T21:45:26.821Z,8.60
2022-07-28T21:50:30.547Z,8.60
2022-07-28T21:55:34.721Z,8.50
2022-07-28T22:00:38.608Z,8.00
2022-07-28T22:05:43.044Z,8.30
2022-07-28T22:10:46.736Z,7.00
2022-07-28T22:15:50.382Z,7.90
2022-07-28T22:20:54.037Z,7.30
2022-07-28T22:25:57.699Z,6.70
2022-07-28T22:31:09.284Z,6.80
2022-07-28T22:36:13.851Z,6.40
2022-07-28T22:41:17.722Z,5.80
2022-07-28T22:46:21.429Z,6.60
2022-07-28T22:51:25.104Z,6.00
2022-07-28T22:56:37.182Z,6.20
2022-07-28T23:01:41.469Z,6.50
2022-07-28T23:06:45.664Z,5.20
2022-07-28T23:11:55.492Z,5.40
2022-07-28T23:17:00.147Z,6.00
2022-07-28T23:22:04.665Z,6.20
2022-07-28T23:27:08.246Z,5.80
2022-07-28T23:32:16.877Z,4.60
2022-07-28T23:37:20.862Z,5.00
2022-07-28T23:42:24.525Z,5.60
2022-07-28T23:47:28.076Z,6.00
2022-07-28T23:52:32.089Z,5.20
2022-07-28T23:57:35.905Z,5.30
